Observation data for Spur on 06/25/2019      Previous  Date       Current Mesonet Observations  Soil Data  Daily Summary Page  Observations in Plain Language
KSP1 250500Z 16008KT 24/20 A2992 RMK A01 T02400199  RH  082%=      5-min Rain = 0
KSP1 250505Z 17008KT 24/20 A2993 RMK A01 T02390196  RH  082%=      5-min Rain = 0
KSP1 250510Z 17006KT 24/20 A2992 RMK A01 T02380195  RH  081%=      5-min Rain = 0
KSP1 250515Z 18005KT 24/19 A2992 RMK A01 T02360194  RH  082%=      5-min Rain = 0
KSP1 250520Z 17004KT 23/19 A2992 RMK A01 T02330193  RH  083%=      5-min Rain = 0
KSP1 250525Z 17003KT 23/19 A2991 RMK A01 T02320192  RH  083%=      5-min Rain = 0
KSP1 250530Z 17001KT 23/19 A2991 RMK A01 T02310192  RH  083%=      5-min Rain = 0
KSP1 250535Z 15001KT 23/19 A2991 RMK A01 T02300192  RH  084%=      5-min Rain = 0
KSP1 250540Z 18000KT 23/19 A2991 RMK A01 T02290191  RH  084%=      5-min Rain = 0
KSP1 250545Z 14000KT 23/19 A2991 RMK A01 T02270189  RH  084%=      5-min Rain = 0
KSP1 250550Z 05000KT 23/19 A2991 RMK A01 T02250188  RH  084%=      5-min Rain = 0
KSP1 250555Z 05000KT 22/19 A2992 RMK A01 T02220187  RH  085%=      5-min Rain = 0
KSP1 250600Z 05001KT 22/19 A2991 RMK A01 T02190185  RH  086%=      5-min Rain = 0
KSP1 250605Z 08002KT 22/19 A2991 RMK A01 T02180187  RH  087%=      5-min Rain = 0
KSP1 250610Z 10002KT 22/19 A2991 RMK A01 T02200190  RH  088%=      5-min Rain = 0
KSP1 250615Z 11001KT 22/19 A2991 RMK A01 T02200187  RH  086%=      5-min Rain = 0
KSP1 250620Z 14001KT 22/19 A2991 RMK A01 T02190186  RH  086%=      5-min Rain = 0
KSP1 250625Z 15002KT 22/19 A2991 RMK A01 T02170185  RH  086%=      5-min Rain = 0
KSP1 250630Z 12000KT 22/18 A2991 RMK A01 T02150183  RH  087%=      5-min Rain = 0
KSP1 250635Z 07000KT 21/19 A2991 RMK A01 T02140185  RH  088%=      5-min Rain = 0
KSP1 250640Z 04001KT 21/18 A2991 RMK A01 T02100181  RH  088%=      5-min Rain = 0
KSP1 250645Z 04002KT 21/18 A2991 RMK A01 T02070181  RH  089%=      5-min Rain = 0
KSP1 250650Z 04003KT 21/18 A2991 RMK A01 T02060180  RH  090%=      5-min Rain = 0
KSP1 250655Z 03002KT 21/18 A2991 RMK A01 T02060181  RH  090%=      5-min Rain = 0
KSP1 250700Z 04002KT 21/18 A2991 RMK A01 T02060182  RH  091%=      5-min Rain = 0
KSP1 250705Z 04002KT 21/18 A2991 RMK A01 T02060182  RH  091%=      5-min Rain = 0
KSP1 250710Z 36001KT 21/18 A2991 RMK A01 T02060182  RH  091%=      5-min Rain = 0
KSP1 250715Z 02001KT 21/18 A2991 RMK A01 T02060182  RH  091%=      5-min Rain = 0
KSP1 250720Z 29000KT 20/18 A2991 RMK A01 T02040181  RH  091%=      5-min Rain = 0
KSP1 250725Z 00000KT 20/18 A2991 RMK A01 T02020178  RH  091%=      5-min Rain = 0
KSP1 250730Z 17000KT 20/18 A2991 RMK A01 T02000177  RH  091%=      5-min Rain = 0
KSP1 250735Z 17001KT 20/18 A2991 RMK A01 T01990176  RH  091%=      5-min Rain = 0
KSP1 250740Z 18000KT 20/18 A2991 RMK A01 T01970175  RH  091%=      5-min Rain = 0
KSP1 250745Z 19000KT 20/17 A2991 RMK A01 T01960173  RH  091%=      5-min Rain = 0
KSP1 250750Z 14000KT 19/17 A2992 RMK A01 T01930171  RH  092%=      5-min Rain = 0
KSP1 250755Z 14001KT 19/17 A2992 RMK A01 T01920171  RH  092%=      5-min Rain = 0
KSP1 250800Z 19001KT 19/17 A2992 RMK A01 T01890167  RH  092%=      5-min Rain = 0
KSP1 250805Z 25001KT 19/17 A2991 RMK A01 T01870166  RH  092%=      5-min Rain = 0
KSP1 250810Z 19000KT 19/17 A2992 RMK A01 T01870167  RH  092%=      5-min Rain = 0
KSP1 250815Z 27001KT 19/17 A2992 RMK A01 T01870167  RH  092%=      5-min Rain = 0
KSP1 250820Z 25002KT 19/16 A2992 RMK A01 T01850164  RH  092%=      5-min Rain = 0
KSP1 250825Z 22001KT 18/16 A2992 RMK A01 T01820162  RH  092%=      5-min Rain = 0
KSP1 250830Z 15001KT 18/16 A2992 RMK A01 T01820163  RH  093%=      5-min Rain = 0
KSP1 250835Z 23002KT 18/17 A2991 RMK A01 T01840166  RH  094%=      5-min Rain = 0
KSP1 250840Z 23002KT 18/16 A2992 RMK A01 T01830164  RH  093%=      5-min Rain = 0
KSP1 250845Z 21002KT 18/16 A2992 RMK A01 T01800161  RH  093%=      5-min Rain = 0
KSP1 250850Z 24002KT 18/16 A2992 RMK A01 T01790161  RH  094%=      5-min Rain = 0
KSP1 250855Z 25003KT 18/16 A2992 RMK A01 T01790162  RH  094%=      5-min Rain = 0
KSP1 250900Z 26003KT 18/16 A2992 RMK A01 T01780161  RH  094%=      5-min Rain = 0
KSP1 250905Z 26001KT 17/16 A2992 RMK A01 T01740157  RH  094%=      5-min Rain = 0
KSP1 250910Z 26001KT 17/16 A2992 RMK A01 T01730157  RH  094%=      5-min Rain = 0
KSP1 250915Z 14001KT 18/16 A2992 RMK A01 T01750160  RH  095%=      5-min Rain = 0
KSP1 250920Z 15002KT 18/16 A2993 RMK A01 T01780163  RH  095%=      5-min Rain = 0
KSP1 250925Z 13001KT 18/16 A2993 RMK A01 T01780162  RH  095%=      5-min Rain = 0
KSP1 250930Z 12002KT 18/16 A2993 RMK A01 T01760160  RH  095%=      5-min Rain = 0
KSP1 250935Z 13003KT 18/16 A2994 RMK A01 T01770162  RH  095%=      5-min Rain = 0
KSP1 250940Z 15001KT 18/16 A2994 RMK A01 T01780164  RH  096%=      5-min Rain = 0
KSP1 250945Z 16002KT 18/16 A2994 RMK A01 T01790164  RH  095%=      5-min Rain = 0
KSP1 250950Z 17002KT 18/17 A2994 RMK A01 T01790165  RH  096%=      5-min Rain = 0
KSP1 250955Z 20002KT 18/16 A2994 RMK A01 T01790164  RH  095%=      5-min Rain = 0
KSP1 251000Z 21001KT 18/16 A2994 RMK A01 T01750159  RH  095%=      5-min Rain = 0
KSP1 251005Z 28002KT 17/16 A2994 RMK A01 T01700155  RH  095%=      5-min Rain = 0
KSP1 251010Z 27003KT 17/15 A2994 RMK A01 T01680153  RH  095%=      5-min Rain = 0
KSP1 251015Z 27003KT 17/15 A2994 RMK A01 T01670152  RH  095%=      5-min Rain = 0
KSP1 251020Z 28003KT 17/15 A2994 RMK A01 T01680154  RH  096%=      5-min Rain = 0
KSP1 251025Z 28003KT 17/16 A2994 RMK A01 T01710157  RH  096%=      5-min Rain = 0
KSP1 251030Z 29003KT 17/16 A2994 RMK A01 T01720158  RH  096%=      5-min Rain = 0
KSP1 251035Z 29004KT 17/16 A2994 RMK A01 T01710156  RH  095%=      5-min Rain = 0
KSP1 251040Z 29004KT 17/15 A2994 RMK A01 T01690154  RH  095%=      5-min Rain = 0
KSP1 251045Z 30003KT 17/15 A2994 RMK A01 T01670152  RH  095%=      5-min Rain = 0
KSP1 251050Z 29003KT 17/15 A2994 RMK A01 T01670152  RH  095%=      5-min Rain = 0
KSP1 251055Z 27004KT 17/15 A2995 RMK A01 T01660152  RH  095%=      5-min Rain = 0
KSP1 251100Z 27005KT 17/15 A2995 RMK A01 T01670152  RH  095%=      5-min Rain = 0
KSP1 251105Z 27004KT 17/15 A2995 RMK A01 T01680152  RH  095%=      5-min Rain = 0
KSP1 251110Z 27004KT 17/15 A2994 RMK A01 T01690152  RH  094%=      5-min Rain = 0
KSP1 251115Z 27004KT 17/15 A2995 RMK A01 T01710152  RH  093%=      5-min Rain = 0
KSP1 251120Z 26004KT 17/15 A2995 RMK A01 T01720151  RH  091%=      5-min Rain = 0
KSP1 251125Z 26004KT 17/15 A2995 RMK A01 T01740150  RH  090%=      5-min Rain = 0
KSP1 251130Z 31003KT 17/14 A2995 RMK A01 T01710144  RH  088%=      5-min Rain = 0
KSP1 251135Z 30002KT 17/14 A2995 RMK A01 T01670143  RH  089%=      5-min Rain = 0
KSP1 251140Z 28002KT 17/14 A2995 RMK A01 T01670143  RH  090%=      5-min Rain = 0
KSP1 251145Z 27003KT 17/14 A2995 RMK A01 T01670144  RH  090%=      5-min Rain = 0
KSP1 251150Z 27003KT 17/15 A2995 RMK A01 T01680145  RH  090%=      5-min Rain = 0
KSP1 251155Z 27003KT 17/15 A2996 RMK A01 T01710145  RH  089%=      5-min Rain = 0
KSP1 251200Z 28002KT 17/15 A2996 RMK A01 T01720145  RH  088%=      5-min Rain = 0
KSP1 251205Z 31002KT 17/14 A2997 RMK A01 T01740144  RH  087%=      5-min Rain = 0
KSP1 251210Z 30002KT 18/15 A2997 RMK A01 T01750145  RH  086%=      5-min Rain = 0
KSP1 251215Z 30002KT 18/15 A2997 RMK A01 T01770146  RH  086%=      5-min Rain = 0
KSP1 251220Z 29002KT 18/15 A2997 RMK A01 T01790146  RH  085%=      5-min Rain = 0
KSP1 251225Z 31002KT 18/15 A2997 RMK A01 T01820148  RH  084%=      5-min Rain = 0
KSP1 251230Z 31001KT 19/15 A2998 RMK A01 T01850150  RH  084%=      5-min Rain = 0
KSP1 251235Z 32001KT 19/15 A2998 RMK A01 T01870150  RH  083%=      5-min Rain = 0
KSP1 251240Z 33002KT 19/15 A2998 RMK A01 T01890152  RH  083%=      5-min Rain = 0
KSP1 251245Z 36001KT 19/15 A2998 RMK A01 T01910154  RH  083%=      5-min Rain = 0
KSP1 251250Z 00001KT 19/15 A2998 RMK A01 T01920152  RH  081%=      5-min Rain = 0
KSP1 251255Z 35002KT 19/15 A2998 RMK A01 T01920151  RH  080%=      5-min Rain = 0
KSP1 251300Z 36001KT 20/15 A2998 RMK A01 T01950153  RH  080%=      5-min Rain = 0
KSP1 251305Z 00002KT 20/15 A2998 RMK A01 T01970152  RH  079%=      5-min Rain = 0
KSP1 251310Z 02001KT 20/16 A2998 RMK A01 T02010155  RH  079%=      5-min Rain = 0
KSP1 251315Z 02001KT 21/16 A2998 RMK A01 T02060155  RH  076%=      5-min Rain = 0
KSP1 251320Z 02002KT 21/15 A2999 RMK A01 T02110154  RH  073%=      5-min Rain = 0
KSP1 251325Z 02002KT 22/15 A2999 RMK A01 T02160154  RH  071%=      5-min Rain = 0
KSP1 251330Z 34002KT 22/15 A2999 RMK A01 T02190149  RH  067%=      5-min Rain = 0
KSP1 251335Z 31002KT 22/15 A2999 RMK A01 T02210150  RH  067%=      5-min Rain = 0
KSP1 251340Z 29002KT 22/15 A2999 RMK A01 T02220149  RH  066%=      5-min Rain = 0
KSP1 251345Z 30001KT 23/15 A30 RMK A01 T02260152  RH  066%=      5-min Rain = 0
KSP1 251350Z 32002KT 23/15 A30 RMK A01 T02300147  RH  062%=      5-min Rain = 0
KSP1 251355Z 28002KT 23/15 A30 RMK A01 T02300148  RH  063%=      5-min Rain = 0
KSP1 251400Z 30004KT 23/15 A30 RMK A01 T02320150  RH  062%=      5-min Rain = 0
KSP1 251405Z 28004G9KT 23/15 A2999 RMK A01 T02330150  RH  062%=      5-min Rain = 0
KSP1 251410Z 26007KT 24/15 A2999 RMK A01 T02360146  RH  060%=      5-min Rain = 0
KSP1 251415Z 28005KT 24/15 A30 RMK A01 T02390148  RH  059%=      5-min Rain = 0
KSP1 251420Z 28005KT 24/15 A30 RMK A01 T02430149  RH  058%=      5-min Rain = 0
KSP1 251425Z 27006G11KT 25/15 A30 RMK A01 T02450149  RH  057%=      5-min Rain = 0
KSP1 251430Z 27008KT 25/15 A30 RMK A01 T02460148  RH  057%=      5-min Rain = 0
KSP1 251435Z 26009G14KT 25/15 A30 RMK A01 T02460151  RH  058%=      5-min Rain = 0
KSP1 251440Z 25009G15KT 25/15 A30 RMK A01 T02480152  RH  058%=      5-min Rain = 0
KSP1 251445Z 25009KT 25/15 A30 RMK A01 T02490153  RH  058%=      5-min Rain = 0
KSP1 251450Z 26007G13KT 25/15 A30 RMK A01 T02520154  RH  057%=      5-min Rain = 0
KSP1 251455Z 25008G13KT 26/16 A30 RMK A01 T02550155  RH  057%=      5-min Rain = 0
KSP1 251500Z 26009KT 26/16 A2999 RMK A01 T02560155  RH  056%=      5-min Rain = 0
KSP1 251505Z 25008G16KT 26/16 A2999 RMK A01 T02580157  RH  056%=      5-min Rain = 0
KSP1 251510Z 25009G14KT 26/16 A30 RMK A01 T02600155  RH  055%=      5-min Rain = 0
KSP1 251515Z 25008KT 26/16 A30 RMK A01 T02610156  RH  055%=      5-min Rain = 0
KSP1 251520Z 24008G15KT 26/16 A30 RMK A01 T02630157  RH  055%=      5-min Rain = 0
KSP1 251525Z 24011G17KT 27/16 A30 RMK A01 T02650156  RH  054%=      5-min Rain = 0
KSP1 251530Z 25009KT 27/16 A30 RMK A01 T02660157  RH  053%=      5-min Rain = 0
KSP1 251535Z 25010G15KT 27/16 A30 RMK A01 T02680157  RH  053%=      5-min Rain = 0
KSP1 251540Z 25009G14KT 27/16 A30 RMK A01 T02690157  RH  053%=      5-min Rain = 0
KSP1 251545Z 24008G13KT 27/16 A30 RMK A01 T02710158  RH  052%=      5-min Rain = 0
KSP1 251550Z 23006G12KT 27/16 A30 RMK A01 T02730159  RH  052%=      5-min Rain = 0
KSP1 251555Z 23010KT 28/16 A30 RMK A01 T02770160  RH  051%=      5-min Rain = 0
KSP1 251600Z 22009G14KT 28/16 A30 RMK A01 T02790159  RH  050%=      5-min Rain = 0
KSP1 251605Z 23009G14KT 28/16 A30 RMK A01 T02790157  RH  050%=      5-min Rain = 0
KSP1 251610Z 22009G15KT 28/16 A30 RMK A01 T02800158  RH  050%=      5-min Rain = 0
KSP1 251615Z 25006KT 28/16 A30 RMK A01 T02820158  RH  049%=      5-min Rain = 0
KSP1 251620Z 22007KT 28/16 A30 RMK A01 T02840161  RH  049%=      5-min Rain = 0
KSP1 251625Z 21005G10KT 29/16 A30 RMK A01 T02860159  RH  048%=      5-min Rain = 0
KSP1 251630Z 22006KT 29/16 A30 RMK A01 T02860158  RH  048%=      5-min Rain = 0
KSP1 251635Z 19007KT 29/16 A30 RMK A01 T02860157  RH  048%=      5-min Rain = 0
KSP1 251640Z 21007G12KT 29/16 A30 RMK A01 T02870156  RH  047%=      5-min Rain = 0
KSP1 251645Z 21006KT 29/16 A30 RMK A01 T02920157  RH  046%=      5-min Rain = 0
KSP1 251650Z 22004G10KT 29/16 A2999 RMK A01 T02940157  RH  046%=      5-min Rain = 0
KSP1 251655Z 25004KT 30/16 A2999 RMK A01 T02960158  RH  045%=      5-min Rain = 0
KSP1 251700Z 20005G12KT 30/16 A2999 RMK A01 T02960158  RH  045%=      5-min Rain = 0
KSP1 251705Z 18005KT 30/16 A2999 RMK A01 T02950157  RH  045%=      5-min Rain = 0
KSP1 251710Z 24004G9KT 30/16 A2999 RMK A01 T02970156  RH  045%=      5-min Rain = 0
KSP1 251715Z 23005KT 30/16 A2999 RMK A01 T02990156  RH  044%=      5-min Rain = 0
KSP1 251720Z 24004KT 30/16 A2999 RMK A01 T03020156  RH  043%=      5-min Rain = 0
KSP1 251725Z 22004KT 31/16 A2999 RMK A01 T03060157  RH  042%=      5-min Rain = 0
KSP1 251730Z 18005KT 31/16 A2999 RMK A01 T03050155  RH  042%=      5-min Rain = 0
KSP1 251735Z 16005G10KT 30/16 A2999 RMK A01 T03020155  RH  043%=      5-min Rain = 0
KSP1 251740Z 16006KT 30/16 A2999 RMK A01 T03040157  RH  043%=      5-min Rain = 0
KSP1 251745Z 21005KT 31/15 A2999 RMK A01 T03070154  RH  042%=      5-min Rain = 0
KSP1 251750Z 17008G15KT 31/16 A2999 RMK A01 T03090156  RH  042%=      5-min Rain = 0
KSP1 251755Z 16004G9KT 31/16 A2999 RMK A01 T03070156  RH  042%=      5-min Rain = 0
KSP1 251800Z 14007G14KT 31/16 A2999 RMK A01 T03070156  RH  042%=      5-min Rain = 0
KSP1 251805Z 16006KT 31/16 A2999 RMK A01 T03070158  RH  043%=      5-min Rain = 0
KSP1 251810Z 17009G14KT 31/16 A2999 RMK A01 T03090156  RH  041%=      5-min Rain = 0
KSP1 251815Z 15006KT 31/16 A2999 RMK A01 T03090157  RH  042%=      5-min Rain = 0
KSP1 251820Z 15007G12KT 31/16 A2999 RMK A01 T03080160  RH  043%=      5-min Rain = 0
KSP1 251825Z 15010G16KT 31/16 A2999 RMK A01 T03110160  RH  042%=      5-min Rain = 0
KSP1 251830Z 13007KT 31/16 A2999 RMK A01 T03100157  RH  042%=      5-min Rain = 0
KSP1 251835Z 16009G14KT 31/15 A2999 RMK A01 T03090153  RH  041%=      5-min Rain = 0
KSP1 251840Z 15007KT 31/15 A2999 RMK A01 T03080152  RH  040%=      5-min Rain = 0
KSP1 251845Z 14006KT 31/15 A2999 RMK A01 T03100153  RH  041%=      5-min Rain = 0
KSP1 251850Z 17009G14KT 31/15 A2999 RMK A01 T03130151  RH  039%=      5-min Rain = 0
KSP1 251855Z 16010G16KT 32/15 A2999 RMK A01 T03160153  RH  039%=      5-min Rain = 0
KSP1 251900Z 16008KT 32/15 A2999 RMK A01 T03150149  RH  038%=      5-min Rain = 0
KSP1 251905Z 18006G12KT 31/16 A2998 RMK A01 T03130156  RH  041%=      5-min Rain = 0
KSP1 251910Z 17006G12KT 32/16 A2998 RMK A01 T03180155  RH  039%=      5-min Rain = 0
KSP1 251915Z 14008G15KT 32/16 A2998 RMK A01 T03200157  RH  039%=      5-min Rain = 0
KSP1 251920Z 15009G15KT 32/16 A2998 RMK A01 T03190162  RH  041%=      5-min Rain = 0
KSP1 251925Z 15008G14KT 32/16 A2998 RMK A01 T03180164  RH  042%=      5-min Rain = 0
KSP1 251930Z 16009KT 32/17 A2998 RMK A01 T03170165  RH  042%=      5-min Rain = 0
KSP1 251935Z 13008G13KT 32/16 A2998 RMK A01 T03150161  RH  041%=      5-min Rain = 0
KSP1 251940Z 14008G13KT 32/16 A2998 RMK A01 T03150164  RH  042%=      5-min Rain = 0
KSP1 251945Z 14010KT 32/16 A2998 RMK A01 T03150164  RH  042%=      5-min Rain = 0
KSP1 251950Z 17010KT 32/16 A2998 RMK A01 T03150161  RH  041%=      5-min Rain = 0
KSP1 251955Z 15007G12KT 32/16 A2998 RMK A01 T03170164  RH  042%=      5-min Rain = 0
KSP1 252000Z 18009G14KT 32/16 A2997 RMK A01 T03210160  RH  040%=      5-min Rain = 0
KSP1 252005Z 17011G16KT 32/16 A2997 RMK A01 T03180158  RH  040%=      5-min Rain = 0
KSP1 252010Z 15008G14KT 32/16 A2997 RMK A01 T03170161  RH  041%=      5-min Rain = 0
KSP1 252015Z 15008G14KT 32/16 A2997 RMK A01 T03180159  RH  040%=      5-min Rain = 0
KSP1 252020Z 13009G15KT 32/16 A2997 RMK A01 T03170158  RH  040%=      5-min Rain = 0
KSP1 252025Z 15010KT 32/16 A2997 RMK A01 T03190159  RH  040%=      5-min Rain = 0
KSP1 252030Z 14010G18KT 32/16 A2996 RMK A01 T03190160  RH  040%=      5-min Rain = 0
KSP1 252035Z 16009G15KT 32/16 A2996 RMK A01 T03210156  RH  039%=      5-min Rain = 0
KSP1 252040Z 15010KT 32/16 A2996 RMK A01 T03190158  RH  040%=      5-min Rain = 0
KSP1 252045Z 15009G16KT 32/16 A2996 RMK A01 T03210158  RH  039%=      5-min Rain = 0
KSP1 252050Z 15010KT 32/16 A2996 RMK A01 T03200155  RH  039%=      5-min Rain = 0
KSP1 252055Z 14009G14KT 32/15 A2996 RMK A01 T03180151  RH  038%=      5-min Rain = 0
KSP1 252100Z 14008G15KT 32/15 A2996 RMK A01 T03210154  RH  038%=      5-min Rain = 0
KSP1 252105Z 15009G16KT 32/15 A2996 RMK A01 T03210149  RH  037%=      5-min Rain = 0
KSP1 252110Z 15009KT 32/15 A2996 RMK A01 T03190146  RH  037%=      5-min Rain = 0
KSP1 252115Z 15008KT 32/15 A2995 RMK A01 T03210147  RH  036%=      5-min Rain = 0
KSP1 252120Z 16010G16KT 32/14 A2995 RMK A01 T03230144  RH  035%=      5-min Rain = 0
KSP1 252125Z 15011G16KT 32/14 A2995 RMK A01 T03210141  RH  035%=      5-min Rain = 0
KSP1 252130Z 15010G15KT 32/14 A2995 RMK A01 T03210142  RH  035%=      5-min Rain = 0
KSP1 252135Z 15009G16KT 32/15 A2994 RMK A01 T03230145  RH  036%=      5-min Rain = 0
KSP1 252140Z 15009KT 32/14 A2994 RMK A01 T03230142  RH  035%=      5-min Rain = 0
KSP1 252145Z 16009KT 33/14 A2994 RMK A01 T03250136  RH  033%=      5-min Rain = 0
KSP1 252150Z 13009G14KT 32/15 A2994 RMK A01 T03240147  RH  036%=      5-min Rain = 0
KSP1 252155Z 15011G16KT 32/14 A2994 RMK A01 T03240139  RH  034%=      5-min Rain = 0
KSP1 252200Z 15010G17KT 32/15 A2994 RMK A01 T03240145  RH  036%=      5-min Rain = 0
KSP1 252205Z 15012G18KT 32/15 A2993 RMK A01 T03230146  RH  036%=      5-min Rain = 0
KSP1 252210Z 14012G17KT 32/14 A2993 RMK A01 T03220144  RH  036%=      5-min Rain = 0
KSP1 252215Z 13011G19KT 32/15 A2993 RMK A01 T03220148  RH  037%=      5-min Rain = 0
KSP1 252220Z 15011G17KT 32/15 A2993 RMK A01 T03220150  RH  037%=      5-min Rain = 0
KSP1 252225Z 15013G19KT 32/15 A2993 RMK A01 T03230145  RH  036%=      5-min Rain = 0
KSP1 252230Z 14012G18KT 32/15 A2992 RMK A01 T03210147  RH  036%=      5-min Rain = 0
KSP1 252235Z 15012G18KT 32/15 A2993 RMK A01 T03210146  RH  036%=      5-min Rain = 0
KSP1 252240Z 14012G18KT 32/14 A2992 RMK A01 T03220142  RH  035%=      5-min Rain = 0
KSP1 252245Z 14012KT 32/15 A2992 RMK A01 T03200145  RH  036%=      5-min Rain = 0
KSP1 252250Z 14013G19KT 32/15 A2992 RMK A01 T03200149  RH  037%=      5-min Rain = 0
KSP1 252255Z 14012G17KT 32/15 A2992 RMK A01 T03190149  RH  038%=      5-min Rain = 0
KSP1 252300Z 14011G16KT 32/15 A2992 RMK A01 T03170150  RH  038%=      5-min Rain = 0
KSP1 252305Z 14012G19KT 32/15 A2992 RMK A01 T03180149  RH  038%=      5-min Rain = 0
KSP1 252310Z 14012G23KT 32/15 A2992 RMK A01 T03170147  RH  037%=      5-min Rain = 0
KSP1 252315Z 14012G20KT 32/15 A2992 RMK A01 T03170145  RH  037%=      5-min Rain = 0
KSP1 252320Z 14012G17KT 32/15 A2992 RMK A01 T03170145  RH  037%=      5-min Rain = 0
KSP1 252325Z 14012G18KT 31/14 A2992 RMK A01 T03120144  RH  038%=      5-min Rain = 0
KSP1 252330Z 14010KT 31/15 A2991 RMK A01 T03100145  RH  038%=      5-min Rain = 0
KSP1 252335Z 14010KT 31/14 A2991 RMK A01 T03090143  RH  038%=      5-min Rain = 0
KSP1 252340Z 14011G17KT 31/14 A2991 RMK A01 T03130142  RH  037%=      5-min Rain = 0
KSP1 252345Z 14014G19KT 31/14 A2991 RMK A01 T03140138  RH  036%=      5-min Rain = 0
KSP1 252350Z 14012KT 31/13 A2991 RMK A01 T03140134  RH  035%=      5-min Rain = 0
KSP1 252355Z 15012KT 31/14 A2991 RMK A01 T03140137  RH  035%=      5-min Rain = 0
KSP1 260000Z 13012G18KT 31/14 A2991 RMK A01 T03130138  RH  036%=      5-min Rain = 0
KSP1 260005Z 15011G18KT 31/14 A2992 RMK A01 T03120138  RH  036%=      5-min Rain = 0
KSP1 260010Z 14010G15KT 31/14 A2992 RMK A01 T03120143  RH  037%=      5-min Rain = 0
KSP1 260015Z 14010G17KT 31/14 A2992 RMK A01 T03110144  RH  038%=      5-min Rain = 0
KSP1 260020Z 14011G18KT 31/14 A2992 RMK A01 T03090138  RH  037%=      5-min Rain = 0
KSP1 260025Z 13010G17KT 31/14 A2993 RMK A01 T03080138  RH  037%=      5-min Rain = 0
KSP1 260030Z 12011G17KT 31/14 A2993 RMK A01 T03070138  RH  037%=      5-min Rain = 0
KSP1 260035Z 13010G18KT 31/14 A2993 RMK A01 T03060139  RH  038%=      5-min Rain = 0
KSP1 260040Z 13010KT 31/14 A2993 RMK A01 T03050141  RH  038%=      5-min Rain = 0
KSP1 260045Z 13010G16KT 30/15 A2993 RMK A01 T03040146  RH  040%=      5-min Rain = 0
KSP1 260050Z 13008G14KT 30/15 A2994 RMK A01 T03030149  RH  041%=      5-min Rain = 0
KSP1 260055Z 14009G14KT 30/15 A2994 RMK A01 T03010150  RH  042%=      5-min Rain = 0
KSP1 260100Z 14010G15KT 30/15 A2994 RMK A01 T02990149  RH  042%=      5-min Rain = 0
KSP1 260105Z 14010G15KT 30/15 A2994 RMK A01 T02980148  RH  042%=      5-min Rain = 0
KSP1 260110Z 14010G16KT 30/15 A2994 RMK A01 T02960147  RH  042%=      5-min Rain = 0
KSP1 260115Z 14010G15KT 29/15 A2994 RMK A01 T02940148  RH  043%=      5-min Rain = 0
KSP1 260120Z 14009G14KT 29/15 A2994 RMK A01 T02910149  RH  044%=      5-min Rain = 0
KSP1 260125Z 14009G14KT 29/15 A2994 RMK A01 T02890150  RH  045%=      5-min Rain = 0
KSP1 260130Z 13007G12KT 29/15 A2995 RMK A01 T02890150  RH  045%=      5-min Rain = 0
KSP1 260135Z 12007KT 29/15 A2995 RMK A01 T02880150  RH  045%=      5-min Rain = 0
KSP1 260140Z 13008G14KT 29/15 A2996 RMK A01 T02870149  RH  045%=      5-min Rain = 0
KSP1 260145Z 12007G12KT 29/15 A2996 RMK A01 T02860149  RH  045%=      5-min Rain = 0
KSP1 260150Z 12006G12KT 29/15 A2996 RMK A01 T02850150  RH  046%=      5-min Rain = 0
KSP1 260155Z 13006KT 28/15 A2996 RMK A01 T02830151  RH  047%=      5-min Rain = 0
KSP1 260200Z 12007KT 28/15 A2997 RMK A01 T02810151  RH  047%=      5-min Rain = 0
KSP1 260205Z 12007KT 28/15 A2997 RMK A01 T02800152  RH  048%=      5-min Rain = 0
KSP1 260210Z 12007G12KT 28/15 A2997 RMK A01 T02780152  RH  048%=      5-min Rain = 0
KSP1 260215Z 12006KT 28/15 A2997 RMK A01 T02770153  RH  049%=      5-min Rain = 0
KSP1 260220Z 12007KT 28/15 A2998 RMK A01 T02750153  RH  049%=      5-min Rain = 0
KSP1 260225Z 12006KT 28/15 A2998 RMK A01 T02750153  RH  050%=      5-min Rain = 0
KSP1 260230Z 13006G11KT 27/15 A2999 RMK A01 T02730153  RH  050%=      5-min Rain = 0
KSP1 260235Z 13005KT 27/15 A2999 RMK A01 T02710154  RH  051%=      5-min Rain = 0
KSP1 260240Z 12006KT 27/15 A30 RMK A01 T02690154  RH  052%=      5-min Rain = 0
KSP1 260245Z 11005KT 27/16 A30 RMK A01 T02670155  RH  052%=      5-min Rain = 0
KSP1 260250Z 11006KT 27/15 A3001 RMK A01 T02680154  RH  052%=      5-min Rain = 0
KSP1 260255Z 11007KT 27/15 A3001 RMK A01 T02690153  RH  051%=      5-min Rain = 0
KSP1 260300Z 10006KT 27/15 A3001 RMK A01 T02680154  RH  052%=      5-min Rain = 0
KSP1 260305Z 08005KT 26/16 A3001 RMK A01 T02630155  RH  054%=      5-min Rain = 0
KSP1 260310Z 09006KT 26/16 A3001 RMK A01 T02600156  RH  055%=      5-min Rain = 0
KSP1 260315Z 08006KT 26/16 A3002 RMK A01 T02590156  RH  056%=      5-min Rain = 0
KSP1 260320Z 06006KT 25/16 A3003 RMK A01 T02540158  RH  058%=      5-min Rain = 0
KSP1 260325Z 06006KT 25/16 A3004 RMK A01 T02490158  RH  060%=      5-min Rain = 0
KSP1 260330Z 06006KT 25/16 A3005 RMK A01 T02470159  RH  061%=      5-min Rain = 0
KSP1 260335Z 06007KT 25/16 A3005 RMK A01 T02470159  RH  061%=      5-min Rain = 0
KSP1 260340Z 06007KT 25/16 A3006 RMK A01 T02470159  RH  061%=      5-min Rain = 0
KSP1 260345Z 06008KT 25/16 A3007 RMK A01 T02470158  RH  061%=      5-min Rain = 0
KSP1 260350Z 06007KT 25/16 A3008 RMK A01 T02480157  RH  060%=      5-min Rain = 0
KSP1 260355Z 05006KT 25/16 A3009 RMK A01 T02490157  RH  059%=      5-min Rain = 0
KSP1 260400Z 05005KT 25/16 A3009 RMK A01 T02490157  RH  059%=      5-min Rain = 0
KSP1 260405Z 05007KT 25/16 A3009 RMK A01 T02480156  RH  059%=      5-min Rain = 0
KSP1 260410Z 05007KT 25/16 A3009 RMK A01 T02490155  RH  059%=      5-min Rain = 0
KSP1 260415Z 06007KT 25/16 A3009 RMK A01 T02510155  RH  058%=      5-min Rain = 0
KSP1 260420Z 04006KT 25/16 A301 RMK A01 T02500155  RH  058%=      5-min Rain = 0
KSP1 260425Z 05007KT 25/16 A301 RMK A01 T02490155  RH  058%=      5-min Rain = 0
KSP1 260430Z 05006KT 25/16 A301 RMK A01 T02490155  RH  058%=      5-min Rain = 0
KSP1 260435Z 05007KT 25/15 A301 RMK A01 T02490152  RH  057%=      5-min Rain = 0
KSP1 260440Z 06007KT 25/15 A3009 RMK A01 T02490150  RH  057%=      5-min Rain = 0
KSP1 260445Z 06006KT 25/15 A3009 RMK A01 T02470150  RH  057%=      5-min Rain = 0
KSP1 260450Z 06007KT 25/15 A3009 RMK A01 T02450149  RH  057%=      5-min Rain = 0
KSP1 260455Z 07006KT 25/15 A3009 RMK A01 T02450148  RH  057%=      5-min Rain = 0

Page generated in 0.0092 seconds.